Go Pro

YETI (YETI) Institutional Ownership

YETI logo
$41.29 -0.16 (-0.39%)
As of 02:58 PM Eastern

Institutional Ownership Changes (13F Filings) for YETI (NYSE:YETI)

Number of
Institutional Buyers
(last 12 months)
223
Total
Institutional Inflows
(last 12 months)
$1.00B
Number of
Institutional Sellers
(last 12 months)
168
Total
Institutional Outflows
(last 12 months)
$392.34M
Get YETI Insider Trade Alerts

Want to know when executives and insiders are buying or selling YETI stock? Sign up for InsiderTrades.com's daily newsletter to get the latest insider transactions delivered to your inbox daily.

SMS is currently available in Australia, Belgium, Canada, France, Germany, Ireland, Italy, New Zealand, the Netherlands, Singapore, South Africa, Spain, Switzerland, the United Kingdom, and the United States. By entering your phone number and clicking the sign-up button, you agree to receive periodic text messages from MarketBeat at the phone number you submitted, including texts that may be sent using an automatic telephone dialing system. Message and data rates may apply. Message frequency will vary. Messages will consist of stock alerts, news stories, and partner advertisements/offers. Consent is not a condition of the purchase of any goods or services. Text HELP for help/customer support. Unsubscribe at any time by replying "STOP" to any text message that you receive from MarketBeat or by visiting our mailing preferences page. Read our full terms of service and privacy policy.
Skip Chart & View Institutional Buying and Selling Data

YETI Institutional Buying and Selling by Quarter

YETI Major Shareholders & Ownership History

Reporting DateMajor Shareholder NameShares HeldMarket Value% of PortfolioQuarterly Change in SharesOwnership in CompanyDetails
8/27/2026 Corient Private Wealth LP260,130$12.89M0.0%-8.4%0.356%
8/26/2026 Amundi14,518$720K0.0%-7.9%0.020%
8/26/2026 HighTower Advisors LLC4,865$241K0.0%-11.7%0.007%
8/25/2026 VIRGINIA RETIREMENT SYSTEMS ET Al10,200$506K0.0%N/A0.014%
8/24/2026 California State Teachers Retirement System4,302,948$213.25M0.0%+4,438.8%5.895%
8/23/2026 Wedmont Private Capital5,175$253K0.0%N/A0.007%
8/22/2026 Prosperitas Financial LLC60,153$2.98M1.0%+6.8%0.082%
8/21/2026 AXQ Capital LP12,114$600K0.1%N/A0.017%
8/21/2026 Nykredit A S2,038$101K0.0%N/A0.003%
8/20/2026 Proficio Capital Partners LLC5,580$277K0.0%N/A0.008%
8/20/2026 Benjamin Edwards Inc.15,552$771K0.0%-28.6%0.021%
8/20/2026 Northwestern Mutual Wealth Management Co.3,738$185K0.0%-27.2%0.005%
8/19/2026 UBS AM a distinct business unit of UBS ASSET MANAGEMENT AMERICAS LLC223,756$11.09M0.0%-2.6%0.307%
8/19/2026 Hsbc Holdings PLC51,121$2.53M0.0%N/A0.070%
8/19/2026 Wellington Management Group LLP4,231,102$209.69M0.0%-11.3%5.797%
8/18/2026 Public Employees Retirement System of Ohio188,824$9.36M0.0%N/A0.259%
8/14/2026 Ancora Advisors LLC2,940$146K0.0%+104.3%0.004%
8/6/2026 Bank of New York Mellon Corp1,169,707$57.97M0.0%N/A1.544%
7/10/2026 Wedge Capital Management L L P NC51,948$2.58M0.0%-5.0%0.069%
7/10/2026 Handelsbanken Fonder AB482,858$23.93M0.1%+165.5%0.637%
7/10/2026 Fulton Bank N.A.13,998$694K0.0%-5.8%0.018%
7/8/2026 Reinhart Partners LLC.3,277,296$162.42M3.7%+5.1%4.326%
7/7/2026 GAMMA Investing LLC5,113$253K0.0%+4.3%0.007%
7/7/2026 Central Pacific Bank Trust Division4,150$206K0.0%-7.6%0.005%
7/2/2026 Versant Capital Management Inc16,078$797K0.1%+19.0%0.021%
6/24/2026 Redwood Investment Management LLC28,707$1.05M0.1%+14.8%0.038%
6/18/2026 Pacer Advisors Inc.9,097$333K0.0%-3.6%0.012%
6/3/2026 Parallel Advisors LLC2,446$89K0.0%+50.9%0.003%
5/26/2026 Glenmede Trust Co. NA282,162$10.32M0.1%-8.8%0.372%
5/19/2026 Bank of America Corp DE524,151$19.18M0.0%-18.6%0.692%
5/19/2026 Edgestream Partners L.P.120,423$4.41M0.1%N/A0.159%
5/19/2026Janus Henderson Group PLC367,082$13.43M0.0%+4.3%0.485%
5/18/2026 Amundi15,756$577K0.0%+56.7%0.021%
5/18/2026 California State Teachers Retirement System94,803$3.47M0.0%+21.5%0.125%
5/18/2026 Royal Bank of Canada79,835$2.92M0.0%-2.9%0.105%
5/18/2026 Empowered Funds LLC289,125$10.58M0.1%+2,858.7%0.382%
5/18/2026 Engaged Capital LLC1,784,095$65.28M21.5%-12.2%2.355%
5/16/2026 The Manufacturers Life Insurance Company51,808$1.90M0.0%-4.7%0.068%
5/16/2026 Quantinno Capital Management LP1,871,188$68.47M0.1%+46.0%2.472%
5/16/2026 SummitTX Capital L.P.7,241$265K0.0%-71.6%0.010%
A letter from Shannon Stansberry (Ad)

Porter Stansberry nearly canceled the entire project. When he first saw the claimed returns - only one down year in nearly two decades and total gains of almost 2,000% - his immediate reaction was disbelief. It took a trusted friend's personal vouching for Emmet Savage and a face-to-face trip to Ireland to change his mind. The full documentary, Investigating Project Prophet, is now live.tc pixel

Watch the full story and see the verified track record for yourself
5/15/2026 Gateway Wealth Partners LLC6,605$242K0.0%N/A0.009%
5/15/2026 Dean Capital Management53,567$1.96M0.8%-31.2%0.071%
5/14/2026 Renaissance Technologies LLC85,500$3.13M0.0%+105.5%0.113%
5/14/2026 Morningstar Investment Management LLC16,096$589K0.0%N/A0.021%
5/14/2026 Public Employees Retirement System of Ohio197,504$7.23M0.0%+15.7%0.261%
5/14/2026 Arrowstreet Capital Limited Partnership87,767$3.21M0.0%N/A0.116%
5/14/2026Gibbs Wealth Management17,382$636K0.1%+67.1%0.023%
5/14/2026 Sei Investments Co.179,637$6.57M0.0%+49.3%0.237%
5/14/2026 State of Wyoming13,476$493K0.1%-14.1%0.018%
5/13/2026 Cetera Investment Advisers39,743$1.45M0.0%+2.2%0.053%
5/13/2026 First Trust Advisors LP91,016$3.33M0.0%-45.7%0.120%
5/12/2026 Quantedge Capital Pte Ltd24,700$904K0.5%N/A0.033%
5/8/2026 PNC Financial Services Group Inc.4,537$166K0.0%-20.0%0.006%
5/7/2026 WCM Investment Management LLC255,906$9.09M0.0%-42.2%0.338%
5/7/2026 Dimensional Fund Advisors LP1,887,097$69.04M0.0%+3.9%2.493%
5/7/2026 Parallel Advisors LLC2,446$89K0.0%+50.9%0.003%
5/7/2026 Swiss National Bank153,900$5.63M0.0%-3.9%0.203%
5/6/2026 California Public Employees Retirement System192,846$7.06M0.0%+16.2%0.255%
5/6/2026 Future Fund LLC118,608$4.34M1.5%+7.8%0.157%
5/6/2026 Kera Capital Partners Inc.14,601$534K0.1%+18.9%0.019%
5/6/2026 Assetmark Inc.8,564$313K0.0%+10.1%0.011%
5/5/2026 D.A. Davidson & CO.57,849$2.12M0.0%+35.2%0.076%
5/5/2026 Twin Capital Management Inc.23,669$866K0.1%N/A0.031%
5/5/2026 Bank of New York Mellon Corp1,229,586$44.99M0.0%-1.8%1.624%
5/5/2026 Hillsdale Investment Management Inc.95,250$3.49M0.1%+21,066.7%0.126%
5/4/2026 Empirical Financial Services LLC d.b.a. Empirical Wealth Management10,142$371K0.0%+65.1%0.013%
5/4/2026 State of Michigan Retirement System18,747$686K0.0%+2.2%0.025%
5/4/2026 Principal Financial Group Inc.173,711$6.36M0.0%+3.7%0.230%
5/4/2026 Chicago Partners Investment Group LLC21,777$885K0.0%+51.2%0.029%
5/4/2026 Teachers Retirement System of The State of Kentucky185,249$6.78M0.1%+3.3%0.245%
5/1/2026 Fifth Third Bancorp30,308$1.11M0.0%+4,318.1%0.040%
5/1/2026 Sequoia Financial Advisors LLC13,965$511K0.0%+7.2%0.018%
4/30/2026 Equitable Trust Co.26,283$962K0.0%-17.4%0.035%
4/30/2026 Oregon Public Employees Retirement Fund16,007$586K0.0%+3.2%0.021%
4/29/2026 Swedbank AB200,000$7.32M0.0%N/A0.264%
4/28/2026 Stephens Inc. AR80,300$2.94M0.0%-1.1%0.106%
4/27/2026 New York State Teachers Retirement System81,288$2.97M0.0%+6.1%0.107%
4/27/2026 Leonteq Securities AG3,344$122K0.0%+948.3%0.004%
4/25/2026 Strs Ohio105,255$3.85M0.0%+6.5%0.139%
4/24/2026 Fulton Bank N.A.14,853$543K0.0%-4.5%0.020%
4/24/2026 Peregrine Capital Management LLC214,093$7.83M0.3%-13.8%0.283%
4/24/2026 Impact Partnership Wealth LLC11,574$423K0.1%N/A0.015%
4/23/2026 SJS Investment Consulting Inc.1,385$51K0.0%+56.0%0.002%
4/22/2026 Fort Washington Investment Advisors Inc. OH677,360$24.79M0.1%+30.8%0.895%
4/22/2026 Pictet Asset Management Holding SA11,964$438K0.0%+10.3%0.016%
4/22/2026 Sterling Capital Management LLC25,979$951K0.0%+60.3%0.034%
4/22/2026 Venturi Wealth Management LLC8,007$293K0.0%+5.2%0.011%
4/21/2026 Xcel Wealth Management LLC24,703$904K0.3%-16.0%0.033%
4/21/2026 Louisiana State Employees Retirement System22,600$827K0.0%N/A0.030%
4/20/2026 Cardinal Point Capital Management ULC41,495$1.52M0.1%-0.8%0.055%
Ticker Revealed: Pre-IPO Access to "Next Elon Musk" Company (Ad)

We’ve found The Next Elon Musk… and what we believe to be the next Tesla. It’s already racked up $26 billion in government contracts. Peter Thiel just bet $1 Billion on it.tc pixel

👉 Unlock the ticker now and get it completely free.
4/20/2026 OP Asset Management Ltd19,593$717K0.0%N/A0.026%
4/18/2026 Leeward Investments LLC MA151,219$5.53M0.3%-2.7%0.200%
4/16/2026 SG Americas Securities LLC143,754$5.26M0.0%-80.8%0.190%
3/17/2026 Rockefeller Capital Management L.P.6,150$272K0.0%+39.3%0.008%
3/9/2026 Corient Private Wealth LLC32,769$1.45M0.0%-30.5%0.044%
2/25/2026 Sit Investment Associates Inc.46,985$2.08M0.0%-15.4%0.060%
2/24/2026 Pacer Advisors Inc.9,441$417K0.0%-96.4%0.012%
2/23/2026 Kera Capital Partners Inc.12,283$561K0.1%-1.9%0.016%
2/20/2026 Dean Capital Management77,915$3.44M1.5%-27.6%0.100%
2/19/2026 Invesco Ltd.731,148$32.30M0.0%-5.2%0.940%


YETI Institutional Ownership - Frequently Asked Questions

During the previous two years, 470 institutional investors and hedge funds held shares of YETI. The most heavily invested institutionals were Vanguard Group Inc. ($343.74M), California State Teachers Retirement System ($213.25M), Wellington Management Group LLP ($209.69M), Baillie Gifford & Co. ($174.26M), Reinhart Partners LLC. ($162.42M), Capital Research Global Investors ($103.47M), and State Street Corp ($103.34M).Learn more on YETI's institutional investors.

Of the 404 institutional investors that purchased YETI's stock in the last 24 months, the following investors and hedge funds have bought the highest volume of shares: California State Teachers Retirement System ($4.22M), Westwood Holdings Group Inc. ($3.82M), Gates Capital Management Inc. ($3.51M), Reinhart Partners LLC. ($3.19M), Engaged Capital LLC ($2.16M), Norges Bank ($2.16M), and Bank of New York Mellon Corp ($1.71M).

Institutional investors have bought a total of 24,176,534 shares in the last 24 months. This purchase volume represents approximately $1.00B in transactions.

Of the 168 institutional investors that sold YETI's stock in the last 24 months, the following investors and hedge funds have sold the highest volume of shares: Wasatch Advisors LP ($1.10M), Pacer Advisors Inc. ($611.50K), SG Americas Securities LLC ($606.50K), Wellington Management Group LLP ($538.84K), Empowered Funds LLC ($491.92K), Vanguard Group Inc. ($429.56K), and Brown Advisory Inc. ($398.71K).

Institutional investors have sold a total of 9,806,828 shares in the last 24 months. This volume of shares sold represents approximately $392.34M in transactions.



Institutional ownership data for NYSE:YETI is compiled from quarterly 13F filings submitted to the U.S. Securities and Exchange Commission (SEC), with the most recent received on 8/27/2026. New 13F filings are added each quarter as they're published.
From Our Partners